createdAt,value
2022-09-28T05:01:15.333Z,0.08
2022-09-28T05:06:22.953Z,0.00
2022-09-28T05:11:27.212Z,0.00
2022-09-28T05:16:33.809Z,0.00
2022-09-28T05:21:46.911Z,0.00
2022-09-28T05:26:50.534Z,0.00
2022-09-28T05:31:57.200Z,0.00
2022-09-28T05:37:02.734Z,0.00
2022-09-28T05:42:07.992Z,0.03
2022-09-28T05:47:13.456Z,0.20
2022-09-28T05:52:17.325Z,0.00
2022-09-28T05:57:21.695Z,0.10
2022-09-28T06:02:26.929Z,0.00
2022-09-28T06:07:30.681Z,0.00
2022-09-28T06:12:35.301Z,0.20
2022-09-28T06:17:40.526Z,0.00
2022-09-28T06:22:52.282Z,0.05
2022-09-28T06:27:57.455Z,0.00
2022-09-28T06:33:03.297Z,0.10
2022-09-28T06:38:07.203Z,0.70
2022-09-28T06:43:14.835Z,0.83
2022-09-28T06:48:25.022Z,1.62
2022-09-28T06:53:29.793Z,2.60
2022-09-28T06:58:33.503Z,2.67
2022-09-28T07:03:40.389Z,2.97
2022-09-28T07:08:45.608Z,2.92
2022-09-28T07:13:53.910Z,3.00
2022-09-28T07:18:58.869Z,1.85
2022-09-28T07:24:02.895Z,1.40
2022-09-28T07:29:09.489Z,0.57
2022-09-28T07:34:14.647Z,0.20
2022-09-28T07:39:24.000Z,0.47
2022-09-28T07:44:27.903Z,0.25
2022-09-28T07:49:32.860Z,0.40
2022-09-28T07:54:38.511Z,0.20
2022-09-28T07:59:43.695Z,0.20
2022-09-28T08:04:51.870Z,0.20
2022-09-28T08:09:55.619Z,0.30
2022-09-28T08:15:04.562Z,0.00
2022-09-28T08:25:31.297Z,0.40
2022-09-28T08:30:37.265Z,0.40
2022-09-28T08:35:43.289Z,0.30
2022-09-28T08:40:57.773Z,0.47
2022-09-28T08:46:02.645Z,0.20
2022-09-28T08:51:16.087Z,0.20
2022-09-28T08:56:31.841Z,0.20
2022-09-28T09:01:41.742Z,0.20
2022-09-28T09:07:11.087Z,0.20
2022-09-28T09:12:22.563Z,0.10
2022-09-28T09:17:38.993Z,0.10
2022-09-28T09:22:54.311Z,0.40
2022-09-28T09:33:53.837Z,0.03
2022-09-28T09:39:24.641Z,0.20
2022-09-28T09:44:49.395Z,0.30
2022-09-28T09:50:05.470Z,0.10
2022-09-28T09:55:21.269Z,0.20
2022-09-28T10:00:25.414Z,0.35
2022-09-28T10:10:39.915Z,0.20
2022-09-28T10:15:45.812Z,0.28
2022-09-28T10:20:50.074Z,0.10
2022-09-28T10:26:00.717Z,0.20
2022-09-28T10:31:38.363Z,0.45
2022-09-28T10:36:52.605Z,0.17
2022-09-28T10:41:59.913Z,0.47
2022-09-28T10:47:08.042Z,0.10
2022-09-28T10:52:33.815Z,0.32
2022-09-28T10:57:39.912Z,0.30
2022-09-28T11:02:43.786Z,0.08
2022-09-28T11:07:49.860Z,0.15
2022-09-28T11:12:56.151Z,0.08
2022-09-28T11:18:22.408Z,0.10
2022-09-28T11:23:31.774Z,0.08
2022-09-28T11:28:41.221Z,0.25
2022-09-28T11:33:48.757Z,0.20
2022-09-28T11:39:03.933Z,0.30
2022-09-28T11:44:37.309Z,0.20
2022-09-28T11:49:48.055Z,0.35
2022-09-28T11:54:55.049Z,0.20
2022-09-28T12:00:04.287Z,0.15
2022-09-28T12:05:20.859Z,0.10
2022-09-28T12:10:35.545Z,0.32
2022-09-28T12:16:13.288Z,0.30
2022-09-28T12:21:27.893Z,0.22
2022-09-28T12:26:38.192Z,0.62
2022-09-28T12:31:54.951Z,0.28
2022-09-28T12:37:13.023Z,0.17
2022-09-28T12:42:33.841Z,0.10
2022-09-28T12:48:09.010Z,0.10
2022-09-28T12:53:37.199Z,0.35
2022-09-28T12:58:55.955Z,0.40
2022-09-28T13:04:24.698Z,0.13
2022-09-28T13:09:29.309Z,0.30
2022-09-28T13:20:00.157Z,0.52
2022-09-28T13:25:12.580Z,0.88
2022-09-28T13:30:19.433Z,0.20
2022-09-28T13:35:25.378Z,0.50
2022-09-28T13:41:18.724Z,0.30
2022-09-28T13:46:30.483Z,0.50
2022-09-28T13:51:46.075Z,0.10
2022-09-28T13:56:57.823Z,0.40
2022-09-28T14:02:07.159Z,0.30
2022-09-28T14:07:21.078Z,0.52
2022-09-28T14:12:45.818Z,0.60
2022-09-28T14:18:13.953Z,0.30
2022-09-28T14:23:45.512Z,0.57
2022-09-28T14:28:59.208Z,0.62
2022-09-28T14:34:06.035Z,0.57
2022-09-28T14:39:39.955Z,1.02
2022-09-28T14:45:35.822Z,0.57
2022-09-28T14:50:39.688Z,0.30
2022-09-28T14:55:51.241Z,0.50
2022-09-28T15:01:03.810Z,0.70
2022-09-28T15:06:07.728Z,0.30
2022-09-28T15:11:17.852Z,0.23
2022-09-28T15:16:25.677Z,0.70
2022-09-28T15:21:36.976Z,0.57
2022-09-28T15:26:43.129Z,0.40
2022-09-28T15:31:49.968Z,0.75
2022-09-28T15:36:56.399Z,0.77
2022-09-28T15:42:02.215Z,0.37
2022-09-28T15:47:13.869Z,0.22
2022-09-28T15:52:36.016Z,0.25
2022-09-28T15:57:41.488Z,0.47
2022-09-28T16:03:01.943Z,0.25
2022-09-28T16:08:07.316Z,0.43
2022-09-28T16:13:23.973Z,0.68
2022-09-28T16:18:29.182Z,0.68
2022-09-28T16:23:36.594Z,0.50
2022-09-28T16:28:52.080Z,0.57
2022-09-28T16:33:58.948Z,0.90
2022-09-28T16:39:02.529Z,0.88
2022-09-28T16:44:16.224Z,0.50
2022-09-28T16:49:20.033Z,0.45
2022-09-28T16:54:42.867Z,0.93
2022-09-28T16:59:47.740Z,0.90
2022-09-28T17:04:51.407Z,0.57
2022-09-28T17:09:54.914Z,0.10
2022-09-28T17:15:00.345Z,0.30
2022-09-28T17:20:17.413Z,0.20
2022-09-28T17:25:21.950Z,0.62
2022-09-28T17:30:26.935Z,0.45
2022-09-28T17:35:30.550Z,0.10
2022-09-28T17:40:34.783Z,0.50
2022-09-28T17:45:41.056Z,0.30
2022-09-28T17:50:46.571Z,0.98
2022-09-28T17:55:50.474Z,0.68
2022-09-28T18:00:55.397Z,0.47
2022-09-28T18:06:03.407Z,0.50
2022-09-28T18:11:07.133Z,0.80
2022-09-28T18:16:13.023Z,0.33
2022-09-28T18:21:16.595Z,0.28
2022-09-28T18:26:20.150Z,0.32
2022-09-28T18:31:25.173Z,0.90
2022-09-28T18:36:32.145Z,0.52
2022-09-28T18:41:35.865Z,0.40
2022-09-28T18:46:43.008Z,0.40
2022-09-28T18:51:46.533Z,0.22
2022-09-28T18:56:51.304Z,0.28
2022-09-28T19:06:59.913Z,0.20
2022-09-28T19:12:03.657Z,0.20
2022-09-28T19:17:08.545Z,0.40
2022-09-28T19:22:13.552Z,0.22
2022-09-28T19:27:17.156Z,0.22
2022-09-28T19:32:22.064Z,0.22
2022-09-28T19:37:25.629Z,0.43
2022-09-28T19:42:29.131Z,0.43
2022-09-28T19:47:33.990Z,0.20
2022-09-28T19:52:37.599Z,0.30
2022-09-28T19:57:41.101Z,0.28
2022-09-28T20:02:46.508Z,0.30
2022-09-28T20:07:50.090Z,0.57
2022-09-28T20:12:53.681Z,0.00
2022-09-28T20:17:58.980Z,0.17
2022-09-28T20:23:03.103Z,0.15
2022-09-28T20:28:06.923Z,0.20
2022-09-28T20:33:18.988Z,0.10
2022-09-28T20:38:26.522Z,0.32
2022-09-28T20:43:31.418Z,0.00
2022-09-28T20:48:36.330Z,0.00
2022-09-28T20:53:41.236Z,0.00
2022-09-28T20:58:44.781Z,0.20
2022-09-28T21:03:51.603Z,0.37
2022-09-28T21:08:55.410Z,0.28
2022-09-28T21:14:00.262Z,0.27
2022-09-28T21:19:05.683Z,0.15
2022-09-28T21:24:09.921Z,0.80
2022-09-28T21:29:15.876Z,0.70
2022-09-28T21:34:22.214Z,0.40
2022-09-28T21:39:25.796Z,0.15
2022-09-28T21:44:29.320Z,0.10
2022-09-28T21:49:34.209Z,0.20
2022-09-28T21:54:38.006Z,0.22
2022-09-28T21:59:41.550Z,0.20
2022-09-28T22:04:46.518Z,0.20
2022-09-28T22:09:53.422Z,0.10
2022-09-28T22:14:57.243Z,0.28
2022-09-28T22:20:02.558Z,0.30
2022-09-28T22:25:06.932Z,0.20
